createdAt,value
2023-12-23T00:00:23.658Z,896.00
2023-12-23T00:01:23.709Z,894.00
2023-12-23T00:02:23.763Z,893.00
2023-12-23T00:03:23.846Z,897.00
2023-12-23T00:04:23.856Z,897.00
2023-12-23T00:05:24.011Z,897.00
2023-12-23T00:06:24.064Z,896.00
2023-12-23T00:07:24.003Z,894.00
2023-12-23T00:08:25.406Z,897.00
2023-12-23T00:09:24.232Z,899.00
2023-12-23T00:10:24.349Z,900.00
2023-12-23T00:11:24.331Z,899.00
2023-12-23T00:12:24.434Z,900.00
2023-12-23T00:13:24.410Z,901.00
2023-12-23T00:14:24.468Z,901.00
2023-12-23T00:15:24.519Z,900.00
2023-12-23T00:16:24.560Z,898.00
2023-12-23T00:17:24.781Z,898.00
2023-12-23T00:18:24.863Z,900.00
2023-12-23T00:19:24.857Z,901.00
2023-12-23T00:20:24.916Z,900.00
2023-12-23T00:21:24.840Z,899.00
2023-12-23T00:22:24.864Z,898.00
2023-12-23T00:23:24.909Z,894.00
2023-12-23T00:24:24.964Z,897.00
2023-12-23T00:25:25.030Z,893.00
2023-12-23T00:26:25.071Z,890.00
2023-12-23T00:27:25.128Z,887.00
2023-12-23T00:28:25.171Z,885.00
2023-12-23T00:29:25.222Z,885.00
2023-12-23T00:30:25.317Z,886.00
2023-12-23T00:31:25.307Z,886.00
2023-12-23T00:32:25.370Z,888.00
2023-12-23T00:33:25.444Z,887.00
2023-12-23T00:34:25.478Z,888.00
2023-12-23T00:35:25.512Z,887.00
2023-12-23T00:36:25.564Z,885.00
2023-12-23T00:37:25.647Z,883.00
2023-12-23T00:38:25.704Z,879.00
2023-12-23T00:39:25.708Z,879.00
2023-12-23T00:40:25.761Z,878.00
2023-12-23T00:41:25.839Z,875.00
2023-12-23T00:42:25.887Z,874.00
2023-12-23T00:43:25.919Z,875.00
2023-12-23T00:44:25.972Z,877.00
2023-12-23T00:45:26.006Z,877.00
2023-12-23T00:46:26.066Z,876.00
2023-12-23T00:47:27.633Z,876.00
2023-12-23T00:48:26.211Z,878.00
2023-12-23T00:49:26.268Z,878.00
2023-12-23T00:50:26.267Z,877.00
2023-12-23T00:51:26.343Z,877.00
2023-12-23T00:52:26.369Z,877.00
2023-12-23T00:53:26.426Z,876.00
2023-12-23T00:54:26.475Z,878.00
2023-12-23T00:55:26.518Z,876.00
2023-12-23T00:56:26.572Z,876.00
2023-12-23T00:57:26.659Z,875.00
2023-12-23T00:58:26.666Z,876.00
2023-12-23T00:59:26.714Z,876.00
2023-12-23T01:00:26.821Z,874.00
2023-12-23T01:01:26.820Z,873.00
2023-12-23T01:02:26.869Z,874.00
2023-12-23T01:03:26.944Z,874.00
2023-12-23T01:04:26.970Z,875.00
2023-12-23T01:05:27.026Z,876.00
2023-12-23T01:06:27.088Z,873.00
2023-12-23T01:07:27.134Z,874.00
2023-12-23T01:08:27.304Z,871.00
2023-12-23T01:09:27.216Z,868.00
2023-12-23T01:10:27.274Z,869.00
2023-12-23T01:11:27.317Z,869.00
2023-12-23T01:12:27.376Z,871.00
2023-12-23T01:13:27.424Z,869.00
2023-12-23T01:14:27.478Z,868.00
2023-12-23T01:15:27.533Z,870.00
2023-12-23T01:16:27.583Z,872.00
2023-12-23T01:17:27.625Z,873.00
2023-12-23T01:18:27.773Z,869.00
2023-12-23T01:19:27.729Z,869.00
2023-12-23T01:20:27.818Z,869.00
2023-12-23T01:21:27.846Z,872.00
2023-12-23T01:22:27.891Z,871.00
2023-12-23T01:23:28.001Z,872.00
2023-12-23T01:24:28.009Z,868.00
2023-12-23T01:25:28.127Z,864.00
2023-12-23T01:26:28.127Z,862.00
2023-12-23T01:27:28.174Z,863.00
2023-12-23T01:28:28.227Z,862.00
2023-12-23T01:29:28.271Z,863.00
2023-12-23T01:30:28.346Z,865.00
2023-12-23T01:31:28.369Z,868.00
2023-12-23T01:32:28.473Z,869.00
2023-12-23T01:33:28.522Z,867.00
2023-12-23T01:34:28.532Z,869.00
2023-12-23T01:35:28.593Z,870.00
2023-12-23T01:36:28.638Z,868.00
2023-12-23T01:37:28.701Z,869.00
2023-12-23T01:38:28.796Z,873.00
2023-12-23T01:39:28.807Z,871.00
2023-12-23T01:40:28.885Z,870.00
2023-12-23T01:41:28.913Z,869.00
2023-12-23T01:42:28.979Z,864.00
2023-12-23T01:43:29.029Z,867.00
2023-12-23T01:44:29.084Z,868.00
2023-12-23T01:45:29.146Z,868.00
2023-12-23T01:46:29.191Z,869.00
2023-12-23T01:47:29.302Z,868.00
2023-12-23T01:48:29.400Z,866.00
2023-12-23T01:49:29.346Z,865.00
2023-12-23T01:50:29.420Z,868.00
2023-12-23T01:51:29.501Z,867.00
2023-12-23T01:52:29.532Z,866.00
2023-12-23T01:53:29.584Z,866.00
2023-12-23T01:54:29.635Z,863.00
2023-12-23T01:55:29.686Z,864.00
2023-12-23T01:56:29.743Z,859.00
2023-12-23T01:57:29.820Z,856.00
2023-12-23T01:58:29.872Z,856.00
2023-12-23T01:59:29.915Z,858.00
2023-12-23T02:00:29.993Z,860.00
2023-12-23T02:01:30.101Z,863.00
2023-12-23T02:02:30.172Z,865.00
2023-12-23T02:03:30.223Z,866.00
2023-12-23T02:04:30.192Z,863.00
2023-12-23T02:05:30.308Z,861.00
2023-12-23T02:06:30.313Z,864.00
2023-12-23T02:07:30.360Z,861.00
2023-12-23T02:08:30.418Z,861.00
2023-12-23T02:09:30.475Z,859.00
2023-12-23T02:10:30.540Z,856.00
2023-12-23T02:11:30.579Z,856.00
2023-12-23T02:12:30.636Z,853.00
2023-12-23T02:13:30.684Z,852.00
2023-12-23T02:14:30.738Z,853.00
2023-12-23T02:15:30.801Z,851.00
2023-12-23T02:16:30.859Z,850.00
2023-12-23T02:17:30.979Z,849.00
2023-12-23T02:18:31.012Z,847.00
2023-12-23T02:19:31.030Z,846.00
2023-12-23T02:20:31.087Z,845.00
2023-12-23T02:21:31.137Z,842.00
2023-12-23T02:22:31.196Z,842.00
2023-12-23T02:23:31.251Z,844.00
2023-12-23T02:24:31.330Z,844.00
2023-12-23T02:25:31.345Z,844.00
2023-12-23T02:26:31.420Z,841.00
2023-12-23T02:27:31.467Z,841.00
2023-12-23T02:28:31.537Z,838.00
2023-12-23T02:29:31.594Z,838.00
2023-12-23T02:30:31.775Z,838.00
2023-12-23T02:31:31.701Z,835.00
2023-12-23T02:32:31.797Z,832.00
2023-12-23T02:33:31.928Z,833.00
2023-12-23T02:34:31.881Z,829.00
2023-12-23T02:35:31.924Z,831.00
2023-12-23T02:36:31.987Z,832.00
2023-12-23T02:37:32.046Z,835.00
2023-12-23T02:38:32.114Z,836.00
2023-12-23T02:39:32.153Z,835.00
2023-12-23T02:40:32.238Z,835.00
2023-12-23T02:41:32.261Z,834.00
2023-12-23T02:42:32.311Z,835.00
2023-12-23T02:43:32.376Z,839.00
2023-12-23T02:44:32.426Z,839.00
2023-12-23T02:45:32.498Z,839.00
2023-12-23T02:46:32.539Z,841.00
2023-12-23T02:47:32.644Z,842.00
2023-12-23T02:48:32.776Z,842.00
2023-12-23T02:49:32.720Z,841.00
2023-12-23T02:50:32.758Z,840.00
2023-12-23T02:51:32.891Z,840.00
2023-12-23T02:52:32.883Z,840.00
2023-12-23T02:53:32.963Z,838.00
2023-12-23T02:54:32.985Z,838.00
2023-12-23T02:55:33.044Z,837.00
2023-12-23T02:56:33.082Z,840.00
2023-12-23T02:57:33.156Z,838.00
2023-12-23T02:58:33.228Z,837.00
2023-12-23T02:59:33.240Z,840.00
2023-12-23T03:00:33.428Z,839.00
2023-12-23T03:01:33.354Z,837.00
2023-12-23T03:02:33.414Z,838.00
2023-12-23T03:03:33.487Z,836.00
2023-12-23T03:04:33.514Z,837.00
2023-12-23T03:05:33.641Z,836.00
2023-12-23T03:06:33.639Z,837.00
2023-12-23T03:07:33.685Z,837.00
2023-12-23T03:08:33.734Z,837.00
2023-12-23T03:09:33.785Z,837.00
2023-12-23T03:10:33.859Z,837.00
2023-12-23T03:11:33.914Z,834.00
2023-12-23T03:12:33.961Z,835.00
2023-12-23T03:13:34.012Z,835.00
2023-12-23T03:14:34.081Z,833.00
2023-12-23T03:15:34.127Z,832.00
2023-12-23T03:16:34.190Z,832.00
2023-12-23T03:17:34.258Z,834.00
2023-12-23T03:18:34.326Z,832.00
2023-12-23T03:19:34.344Z,833.00
2023-12-23T03:20:34.405Z,831.00
2023-12-23T03:21:34.467Z,830.00
2023-12-23T03:22:34.520Z,830.00
2023-12-23T03:23:34.586Z,830.00
2023-12-23T03:24:34.632Z,830.00
2023-12-23T03:25:34.692Z,828.00
2023-12-23T03:26:34.764Z,827.00
2023-12-23T03:27:34.805Z,824.00
2023-12-23T03:28:34.865Z,825.00
2023-12-23T03:29:34.926Z,827.00
2023-12-23T03:30:35.004Z,827.00
2023-12-23T03:31:35.060Z,827.00
2023-12-23T03:32:35.120Z,827.00
2023-12-23T03:33:35.167Z,827.00
2023-12-23T03:34:35.208Z,827.00
2023-12-23T03:35:35.273Z,828.00
2023-12-23T03:36:35.332Z,829.00
2023-12-23T03:37:35.420Z,826.00
2023-12-23T03:38:35.446Z,828.00
2023-12-23T03:39:35.491Z,830.00
2023-12-23T03:40:35.565Z,827.00
2023-12-23T03:41:35.606Z,827.00
2023-12-23T03:42:35.713Z,824.00
2023-12-23T03:43:35.725Z,820.00
2023-12-23T03:44:35.784Z,819.00
2023-12-23T03:45:35.838Z,818.00
2023-12-23T03:46:35.912Z,821.00
2023-12-23T03:47:35.984Z,823.00
2023-12-23T03:48:36.051Z,826.00
2023-12-23T03:49:36.081Z,826.00
2023-12-23T03:50:36.121Z,827.00
2023-12-23T03:51:36.170Z,829.00
2023-12-23T03:52:36.345Z,825.00
2023-12-23T03:53:36.274Z,823.00
2023-12-23T03:54:36.343Z,821.00
2023-12-23T03:55:36.459Z,820.00
2023-12-23T03:56:36.468Z,821.00
2023-12-23T03:57:36.526Z,822.00
2023-12-23T03:58:36.701Z,822.00
2023-12-23T03:59:36.630Z,821.00
2023-12-23T04:00:36.804Z,819.00
2023-12-23T04:01:36.794Z,820.00
2023-12-23T04:02:36.815Z,816.00
2023-12-23T04:03:36.925Z,813.00
2023-12-23T04:04:36.958Z,810.00
2023-12-23T04:05:36.992Z,811.00
2023-12-23T04:06:37.069Z,810.00
2023-12-23T04:07:37.241Z,807.00
2023-12-23T04:08:37.159Z,807.00
2023-12-23T04:09:37.215Z,809.00
2023-12-23T04:10:37.350Z,813.00
2023-12-23T04:11:37.361Z,813.00
2023-12-23T04:12:37.384Z,814.00
2023-12-23T04:13:37.481Z,814.00
2023-12-23T04:14:37.503Z,810.00
2023-12-23T04:15:37.567Z,808.00
2023-12-23T04:16:37.660Z,809.00
2023-12-23T04:17:37.741Z,810.00
2023-12-23T04:18:37.869Z,812.00
2023-12-23T04:19:37.831Z,813.00
2023-12-23T04:20:37.891Z,810.00
2023-12-23T04:21:37.927Z,812.00
2023-12-23T04:22:38.068Z,809.00
2023-12-23T04:23:38.028Z,806.00
2023-12-23T04:24:38.156Z,807.00
2023-12-23T04:25:38.180Z,809.00
2023-12-23T04:26:38.246Z,810.00
2023-12-23T04:27:38.281Z,809.00
2023-12-23T04:28:38.377Z,808.00
2023-12-23T04:29:38.384Z,802.00
2023-12-23T04:30:38.527Z,801.00
2023-12-23T04:31:38.582Z,798.00
2023-12-23T04:32:38.633Z,800.00
2023-12-23T04:33:38.682Z,800.00
2023-12-23T04:34:38.711Z,799.00
2023-12-23T04:35:38.721Z,801.00
2023-12-23T04:36:38.782Z,804.00
2023-12-23T04:37:38.868Z,807.00
2023-12-23T04:38:38.895Z,808.00
2023-12-23T04:39:38.947Z,810.00
2023-12-23T04:40:39.005Z,809.00
2023-12-23T04:41:39.067Z,810.00
2023-12-23T04:42:39.154Z,809.00
2023-12-23T04:43:39.248Z,805.00
2023-12-23T04:44:46.547Z,823.00
2023-12-23T04:45:46.568Z,810.00
2023-12-23T04:46:46.607Z,816.00
2023-12-23T04:47:46.612Z,816.00
2023-12-23T04:48:46.639Z,818.00
2023-12-23T04:49:46.654Z,818.00
2023-12-23T04:50:46.651Z,819.00
2023-12-23T04:51:46.664Z,818.00
2023-12-23T04:52:46.747Z,819.00
2023-12-23T04:53:46.694Z,821.00
2023-12-23T04:54:46.734Z,821.00
2023-12-23T04:55:46.750Z,819.00
2023-12-23T04:56:46.826Z,822.00
2023-12-23T04:57:46.763Z,820.00
2023-12-23T04:58:46.824Z,824.00
2023-12-23T04:59:46.789Z,827.00
2023-12-23T05:00:46.821Z,827.00
2023-12-23T05:01:46.857Z,827.00
2023-12-23T05:02:47.006Z,824.00
2023-12-23T05:03:46.885Z,822.00
2023-12-23T05:04:46.892Z,820.00
2023-12-23T05:05:46.996Z,818.00
2023-12-23T05:06:46.904Z,820.00
2023-12-23T05:07:46.946Z,820.00
2023-12-23T05:08:46.942Z,820.00
2023-12-23T05:09:46.971Z,819.00
2023-12-23T05:10:47.031Z,820.00
2023-12-23T05:11:47.000Z,818.00
2023-12-23T05:12:47.024Z,817.00
2023-12-23T05:13:47.099Z,819.00
2023-12-23T05:14:47.054Z,816.00
2023-12-23T05:15:47.078Z,819.00
2023-12-23T05:16:47.112Z,817.00
2023-12-23T05:17:47.211Z,816.00
2023-12-23T05:18:47.673Z,818.00
2023-12-23T05:19:47.178Z,821.00
2023-12-23T05:20:47.183Z,820.00
2023-12-23T05:21:47.201Z,818.00
2023-12-23T05:22:47.472Z,809.00
2023-12-23T05:23:47.240Z,807.00
2023-12-23T05:24:47.251Z,803.00
2023-12-23T05:25:47.325Z,808.00
2023-12-23T05:26:49.178Z,809.00
2023-12-23T05:27:47.336Z,810.00
2023-12-23T05:28:47.420Z,809.00
2023-12-23T05:29:47.460Z,813.00
2023-12-23T05:30:47.601Z,813.00
2023-12-23T05:31:47.639Z,815.00
2023-12-23T05:32:48.050Z,816.00
2023-12-23T05:33:47.806Z,815.00
2023-12-23T05:34:47.789Z,811.00
2023-12-23T05:35:47.825Z,810.00
2023-12-23T05:36:47.943Z,808.00
2023-12-23T05:37:47.980Z,810.00
2023-12-23T05:38:48.027Z,810.00
2023-12-23T05:39:48.092Z,812.00
2023-12-23T05:40:48.158Z,813.00
2023-12-23T05:41:48.208Z,811.00
2023-12-23T05:42:48.371Z,813.00
2023-12-23T05:43:48.405Z,815.00
2023-12-23T05:44:48.395Z,814.00
2023-12-23T05:45:48.446Z,813.00
2023-12-23T05:46:48.565Z,810.00
2023-12-23T05:47:48.668Z,807.00
2023-12-23T05:48:48.759Z,806.00
2023-12-23T05:49:48.786Z,806.00
2023-12-23T05:50:48.763Z,813.00
2023-12-23T05:51:48.830Z,808.00
2023-12-23T05:52:49.195Z,805.00
2023-12-23T05:53:48.969Z,807.00
2023-12-23T05:54:49.030Z,808.00
2023-12-23T05:55:49.147Z,806.00
2023-12-23T05:56:49.150Z,806.00
2023-12-23T05:57:49.208Z,805.00
2023-12-23T05:58:49.281Z,804.00
2023-12-23T05:59:49.341Z,804.00
2023-12-23T06:00:49.423Z,803.00
2023-12-23T06:01:49.529Z,802.00
2023-12-23T06:02:49.890Z,801.00
2023-12-23T06:03:49.655Z,799.00
2023-12-23T06:04:49.689Z,799.00
2023-12-23T06:05:49.812Z,797.00
2023-12-23T06:06:49.827Z,793.00
2023-12-23T06:07:49.892Z,793.00
2023-12-23T06:08:49.939Z,793.00
2023-12-23T06:09:50.007Z,791.00
2023-12-23T06:10:57.426Z,793.00
2023-12-23T06:11:51.128Z,793.00
2023-12-23T06:12:50.320Z,794.00
2023-12-23T06:13:50.181Z,793.00
2023-12-23T06:14:50.155Z,788.00
2023-12-23T06:15:50.171Z,790.00
2023-12-23T06:16:50.202Z,788.00
2023-12-23T06:17:50.262Z,788.00
2023-12-23T06:18:50.291Z,788.00
2023-12-23T06:19:50.287Z,789.00
2023-12-23T06:20:50.269Z,789.00
2023-12-23T06:21:50.293Z,790.00
2023-12-23T06:22:50.651Z,788.00
2023-12-23T06:23:50.376Z,785.00
2023-12-23T06:24:50.456Z,788.00
2023-12-23T06:25:50.531Z,789.00
2023-12-23T06:26:50.573Z,789.00
2023-12-23T06:27:50.657Z,790.00
2023-12-23T06:28:50.742Z,789.00
2023-12-23T06:29:50.765Z,786.00
2023-12-23T06:30:50.892Z,787.00
2023-12-23T06:31:50.937Z,786.00
2023-12-23T06:32:51.253Z,786.00
2023-12-23T06:33:51.132Z,788.00
2023-12-23T06:34:51.116Z,790.00
2023-12-23T06:35:51.159Z,788.00
2023-12-23T06:36:51.230Z,790.00
2023-12-23T06:37:51.322Z,790.00
2023-12-23T06:38:51.352Z,788.00
2023-12-23T06:39:51.425Z,788.00
2023-12-23T06:40:51.505Z,787.00
2023-12-23T06:41:51.537Z,787.00
2023-12-23T06:42:51.839Z,785.00
2023-12-23T06:43:53.183Z,787.00
2023-12-23T06:44:51.734Z,785.00
2023-12-23T06:45:51.799Z,783.00
2023-12-23T06:46:51.905Z,781.00
2023-12-23T06:47:52.124Z,782.00
2023-12-23T06:48:52.106Z,779.00
2023-12-23T06:49:52.154Z,778.00
2023-12-23T06:50:52.175Z,779.00
2023-12-23T06:51:52.208Z,778.00
2023-12-23T06:52:52.596Z,780.00
2023-12-23T06:53:52.326Z,775.00
2023-12-23T06:54:52.394Z,776.00
2023-12-23T06:55:52.489Z,775.00
2023-12-23T06:56:52.526Z,774.00
2023-12-23T06:57:52.587Z,771.00
2023-12-23T06:58:52.680Z,769.00
2023-12-23T06:59:52.729Z,772.00
2023-12-23T07:00:52.819Z,775.00
2023-12-23T07:01:52.919Z,775.00
2023-12-23T07:02:53.136Z,775.00
2023-12-23T07:03:53.030Z,773.00
2023-12-23T07:04:53.123Z,774.00
2023-12-23T07:05:53.290Z,772.00
2023-12-23T07:06:53.241Z,772.00
2023-12-23T07:07:53.325Z,772.00
2023-12-23T07:08:53.414Z,772.00
2023-12-23T07:10:01.828Z,775.00
2023-12-23T07:10:54.514Z,773.00
2023-12-23T07:11:53.625Z,774.00
2023-12-23T07:12:53.541Z,773.00
2023-12-23T07:13:53.532Z,773.00
2023-12-23T07:14:53.553Z,775.00
2023-12-23T07:15:53.517Z,774.00
2023-12-23T07:16:53.564Z,773.00
2023-12-23T07:17:53.607Z,772.00
2023-12-23T07:18:53.637Z,773.00
2023-12-23T07:19:53.699Z,773.00
2023-12-23T07:20:53.707Z,772.00
2023-12-23T07:21:53.785Z,773.00
2023-12-23T07:22:54.153Z,773.00
2023-12-23T07:23:53.936Z,772.00
2023-12-23T07:24:54.001Z,772.00
2023-12-23T07:25:54.077Z,770.00
2023-12-23T07:26:54.129Z,771.00
2023-12-23T07:27:54.199Z,770.00
2023-12-23T07:28:54.281Z,770.00
2023-12-23T07:29:54.347Z,770.00
2023-12-23T07:30:54.545Z,770.00
2023-12-23T07:31:54.569Z,771.00
2023-12-23T07:32:54.958Z,772.00
2023-12-23T07:33:54.681Z,769.00
2023-12-23T07:34:54.754Z,767.00
2023-12-23T07:35:54.764Z,769.00
2023-12-23T07:36:54.827Z,767.00
2023-12-23T07:37:54.943Z,769.00
2023-12-23T07:38:54.979Z,764.00
2023-12-23T07:39:55.051Z,764.00
2023-12-23T07:40:55.162Z,764.00
2023-12-23T07:41:55.182Z,763.00
2023-12-23T07:42:55.254Z,765.00
2023-12-23T07:43:55.338Z,765.00
2023-12-23T07:44:55.393Z,766.00
2023-12-23T07:45:55.466Z,766.00
2023-12-23T07:46:55.537Z,767.00
2023-12-23T07:47:55.653Z,766.00
2023-12-23T07:48:55.732Z,767.00
2023-12-23T07:49:55.771Z,767.00
2023-12-23T07:50:55.819Z,766.00
2023-12-23T07:51:55.878Z,769.00
2023-12-23T07:52:55.977Z,768.00
2023-12-23T07:53:56.116Z,767.00
2023-12-23T07:54:56.080Z,769.00
2023-12-23T07:55:56.194Z,769.00
2023-12-23T07:56:56.227Z,766.00
2023-12-23T07:57:56.295Z,764.00
2023-12-23T07:58:56.393Z,765.00
2023-12-23T07:59:56.436Z,766.00
2023-12-23T08:00:56.536Z,763.00
2023-12-23T08:01:56.617Z,763.00
2023-12-23T08:02:56.661Z,759.00
2023-12-23T08:03:56.767Z,759.00
2023-12-23T08:04:56.910Z,763.00
2023-12-23T08:05:56.928Z,760.00
2023-12-23T08:06:56.937Z,758.00
2023-12-23T08:07:57.073Z,758.00
2023-12-23T08:08:57.073Z,761.00
2023-12-23T08:09:57.137Z,763.00
2023-12-23T08:10:57.212Z,760.00
2023-12-23T08:11:57.281Z,762.00
2023-12-23T08:12:57.352Z,766.00
2023-12-23T08:13:57.453Z,766.00
2023-12-23T08:14:57.506Z,766.00
2023-12-23T08:15:57.585Z,765.00
2023-12-23T08:16:57.648Z,765.00
2023-12-23T08:17:57.783Z,767.00
2023-12-23T08:18:57.847Z,767.00
2023-12-23T08:19:57.880Z,769.00
2023-12-23T08:20:57.939Z,768.00
2023-12-23T08:21:58.001Z,767.00
2023-12-23T08:22:58.114Z,769.00
2023-12-23T08:23:58.147Z,768.00
2023-12-23T08:24:58.214Z,766.00
2023-12-23T08:25:58.308Z,763.00
2023-12-23T08:26:58.362Z,762.00
2023-12-23T08:27:58.422Z,765.00
2023-12-23T08:28:58.514Z,762.00
2023-12-23T08:29:58.620Z,756.00
2023-12-23T08:30:58.671Z,756.00
2023-12-23T08:31:58.832Z,755.00
2023-12-23T08:32:58.863Z,753.00
2023-12-23T08:33:58.944Z,757.00
2023-12-23T08:34:58.951Z,759.00
2023-12-23T08:35:59.005Z,759.00
2023-12-23T08:36:59.067Z,759.00
2023-12-23T08:37:59.148Z,759.00
2023-12-23T08:38:59.201Z,757.00
2023-12-23T08:39:59.273Z,753.00
2023-12-23T08:40:59.394Z,756.00
2023-12-23T08:41:59.421Z,755.00
2023-12-23T08:42:59.479Z,756.00
2023-12-23T08:43:59.585Z,757.00
2023-12-23T08:44:59.641Z,759.00
2023-12-23T08:45:59.705Z,758.00
2023-12-23T08:46:59.796Z,757.00
2023-12-23T08:47:59.896Z,758.00
2023-12-23T08:49:00.001Z,760.00
2023-12-23T08:49:59.997Z,759.00
2023-12-23T08:51:00.058Z,756.00
2023-12-23T08:52:00.160Z,756.00
2023-12-23T08:53:00.255Z,755.00
2023-12-23T08:54:00.666Z,754.00
2023-12-23T08:55:00.395Z,754.00
2023-12-23T08:56:00.475Z,755.00
2023-12-23T08:57:00.511Z,755.00
2023-12-23T08:58:00.558Z,752.00
2023-12-23T08:59:00.666Z,754.00
2023-12-23T09:00:00.680Z,757.00
2023-12-23T09:01:00.792Z,757.00
2023-12-23T09:02:00.843Z,757.00
2023-12-23T09:03:00.899Z,755.00
2023-12-23T09:04:01.025Z,753.00
2023-12-23T09:05:01.146Z,752.00
2023-12-23T09:06:01.217Z,755.00
2023-12-23T09:07:01.164Z,760.00
2023-12-23T09:08:01.278Z,760.00
2023-12-23T09:09:01.444Z,761.00
2023-12-23T09:10:01.363Z,760.00
2023-12-23T09:11:01.503Z,762.00
2023-12-23T09:12:01.494Z,760.00
2023-12-23T09:13:01.570Z,759.00
2023-12-23T09:14:01.666Z,759.00
2023-12-23T09:15:01.697Z,758.00
2023-12-23T09:16:01.776Z,754.00
2023-12-23T09:17:01.855Z,758.00
2023-12-23T09:18:01.977Z,756.00
2023-12-23T09:19:02.078Z,756.00
2023-12-23T09:20:02.147Z,754.00
2023-12-23T09:21:02.128Z,758.00
2023-12-23T09:22:02.215Z,759.00
2023-12-23T09:23:02.301Z,759.00
2023-12-23T09:24:02.319Z,758.00
2023-12-23T09:25:02.399Z,759.00
2023-12-23T09:26:02.481Z,758.00
2023-12-23T09:27:02.529Z,757.00
2023-12-23T09:28:02.594Z,758.00
2023-12-23T09:29:02.707Z,757.00
2023-12-23T09:30:02.722Z,758.00
2023-12-23T09:31:02.843Z,758.00
2023-12-23T09:32:02.892Z,758.00
2023-12-23T09:33:03.150Z,756.00
2023-12-23T09:34:03.081Z,754.00
2023-12-23T09:35:05.943Z,752.00
2023-12-23T09:36:03.075Z,753.00
2023-12-23T09:37:03.087Z,752.00
2023-12-23T09:38:03.134Z,751.00
2023-12-23T09:39:03.120Z,750.00
2023-12-23T09:40:03.126Z,755.00
2023-12-23T09:41:03.151Z,756.00
2023-12-23T09:42:03.180Z,758.00
2023-12-23T09:43:03.177Z,758.00
2023-12-23T09:44:03.210Z,756.00
2023-12-23T09:45:03.251Z,756.00
2023-12-23T09:46:03.217Z,755.00
2023-12-23T09:47:03.241Z,757.00
2023-12-23T09:48:03.338Z,755.00
2023-12-23T09:49:06.182Z,755.00
2023-12-23T09:50:03.283Z,753.00
2023-12-23T09:51:03.274Z,754.00
2023-12-23T09:52:03.285Z,752.00
2023-12-23T09:53:03.454Z,752.00
2023-12-23T09:54:03.404Z,752.00
2023-12-23T09:55:06.269Z,752.00
2023-12-23T09:56:03.392Z,749.00
2023-12-23T09:57:03.354Z,749.00
2023-12-23T09:58:03.374Z,748.00
2023-12-23T09:59:03.411Z,751.00
2023-12-23T10:00:03.397Z,752.00
2023-12-23T10:01:03.437Z,754.00
2023-12-23T10:02:03.454Z,755.00
2023-12-23T10:03:03.516Z,755.00
2023-12-23T10:04:03.465Z,757.00
2023-12-23T10:05:03.548Z,755.00
2023-12-23T10:06:03.676Z,756.00
2023-12-23T10:07:03.515Z,752.00
2023-12-23T10:08:03.592Z,748.00
2023-12-23T10:09:03.544Z,749.00
2023-12-23T10:10:03.567Z,750.00
2023-12-23T10:11:03.602Z,751.00
2023-12-23T10:12:03.587Z,751.00
2023-12-23T10:13:03.618Z,749.00
2023-12-23T10:14:03.747Z,744.00
2023-12-23T10:15:03.680Z,747.00
2023-12-23T10:16:03.661Z,750.00
2023-12-23T10:17:03.734Z,749.00
2023-12-23T10:18:03.801Z,746.00
2023-12-23T10:19:03.833Z,743.00
2023-12-23T10:20:03.790Z,742.00
2023-12-23T10:21:03.755Z,744.00
2023-12-23T10:22:05.293Z,741.00
2023-12-23T10:23:03.870Z,740.00
2023-12-23T10:24:03.806Z,740.00
2023-12-23T10:25:03.823Z,737.00
2023-12-23T10:26:03.943Z,733.00
2023-12-23T10:27:03.866Z,733.00
2023-12-23T10:28:03.862Z,735.00
2023-12-23T10:29:04.127Z,735.00
2023-12-23T10:30:03.917Z,734.00
2023-12-23T10:31:03.954Z,733.00
2023-12-23T10:32:03.928Z,734.00
2023-12-23T10:33:04.021Z,734.00
2023-12-23T10:34:04.121Z,737.00
2023-12-23T10:35:04.203Z,738.00
2023-12-23T10:36:04.162Z,740.00
2023-12-23T10:37:04.222Z,740.00
2023-12-23T10:38:04.306Z,739.00
2023-12-23T10:39:04.352Z,738.00
2023-12-23T10:40:04.419Z,738.00
2023-12-23T10:41:04.518Z,741.00
2023-12-23T10:42:04.592Z,736.00
2023-12-23T10:43:04.622Z,737.00
2023-12-23T10:44:04.753Z,736.00
2023-12-23T10:45:04.771Z,735.00
2023-12-23T10:46:04.832Z,733.00
2023-12-23T10:47:04.928Z,734.00
2023-12-23T10:48:05.041Z,734.00
2023-12-23T10:49:05.189Z,730.00
2023-12-23T10:50:05.135Z,731.00
2023-12-23T10:51:05.182Z,733.00
2023-12-23T10:52:05.227Z,732.00
2023-12-23T10:53:05.312Z,732.00
2023-12-23T10:54:05.345Z,732.00
2023-12-23T10:55:05.412Z,732.00
2023-12-23T10:56:05.512Z,732.00
2023-12-23T10:57:05.570Z,730.00
2023-12-23T10:58:05.594Z,730.00
2023-12-23T10:59:05.740Z,732.00
2023-12-23T11:00:05.722Z,732.00
2023-12-23T11:01:05.865Z,733.00
2023-12-23T11:02:05.900Z,733.00
2023-12-23T11:03:05.928Z,733.00
2023-12-23T11:04:06.003Z,733.00
2023-12-23T11:05:06.122Z,731.00
2023-12-23T11:06:06.180Z,730.00
2023-12-23T11:07:06.198Z,732.00
2023-12-23T11:08:10.554Z,734.00
2023-12-23T11:09:07.274Z,733.00
2023-12-23T11:10:06.302Z,738.00
2023-12-23T11:11:06.352Z,735.00
2023-12-23T11:12:06.336Z,732.00
2023-12-23T11:13:06.356Z,733.00
2023-12-23T11:14:06.411Z,732.00
2023-12-23T11:15:06.382Z,732.00
2023-12-23T11:16:06.415Z,730.00
2023-12-23T11:17:06.439Z,727.00
2023-12-23T11:18:08.980Z,728.00
2023-12-23T11:19:06.810Z,727.00
2023-12-23T11:20:06.478Z,723.00
2023-12-23T11:21:06.488Z,721.00
2023-12-23T11:22:06.517Z,722.00
2023-12-23T11:23:06.550Z,725.00
2023-12-23T11:24:06.552Z,725.00
2023-12-23T11:25:06.569Z,727.00
2023-12-23T11:26:06.724Z,730.00
2023-12-23T11:27:06.620Z,729.00
2023-12-23T11:28:06.627Z,731.00
2023-12-23T11:29:06.717Z,732.00
2023-12-23T11:30:06.697Z,731.00
2023-12-23T11:31:06.754Z,729.00
2023-12-23T11:32:06.706Z,728.00
2023-12-23T11:33:06.768Z,727.00
2023-12-23T11:34:06.763Z,726.00
2023-12-23T11:35:06.785Z,722.00
2023-12-23T11:36:06.737Z,718.00
2023-12-23T11:37:06.745Z,720.00
2023-12-23T11:38:06.801Z,719.00
2023-12-23T11:39:06.779Z,721.00
2023-12-23T11:40:06.785Z,723.00
2023-12-23T11:41:06.823Z,723.00
2023-12-23T11:42:06.818Z,726.00
2023-12-23T11:43:06.826Z,726.00
2023-12-23T11:44:06.944Z,725.00
2023-12-23T11:45:06.862Z,726.00
2023-12-23T11:46:06.876Z,725.00
2023-12-23T11:47:06.925Z,724.00
2023-12-23T11:48:06.949Z,725.00
2023-12-23T11:49:06.951Z,726.00
2023-12-23T11:50:06.974Z,727.00
2023-12-23T11:51:06.942Z,730.00
2023-12-23T11:52:06.968Z,731.00
2023-12-23T11:53:07.055Z,726.00
2023-12-23T11:54:07.035Z,728.00
2023-12-23T11:55:07.018Z,726.00
2023-12-23T11:56:07.068Z,724.00
2023-12-23T11:57:07.046Z,723.00
2023-12-23T11:58:07.059Z,720.00
2023-12-23T11:59:07.137Z,720.00
2023-12-23T12:00:07.142Z,722.00
2023-12-23T12:01:07.137Z,718.00
2023-12-23T12:02:07.261Z,718.00
2023-12-23T12:03:07.153Z,716.00
2023-12-23T12:04:07.185Z,717.00
2023-12-23T12:05:07.228Z,714.00
2023-12-23T12:06:07.330Z,715.00
2023-12-23T12:07:07.218Z,714.00
2023-12-23T12:08:07.263Z,717.00
2023-12-23T12:09:07.260Z,714.00
2023-12-23T12:10:07.309Z,713.00
2023-12-23T12:11:07.456Z,711.00
2023-12-23T12:12:07.328Z,711.00
2023-12-23T12:13:07.351Z,713.00
2023-12-23T12:14:07.427Z,711.00
2023-12-23T12:15:07.397Z,711.00
2023-12-23T12:16:07.422Z,710.00
2023-12-23T12:17:10.013Z,709.00
2023-12-23T12:18:07.558Z,710.00
2023-12-23T12:19:07.601Z,712.00
2023-12-23T12:20:07.521Z,713.00
2023-12-23T12:21:07.514Z,715.00
2023-12-23T12:22:07.539Z,714.00
2023-12-23T12:23:07.577Z,713.00
2023-12-23T12:24:07.591Z,709.00
2023-12-23T12:25:07.600Z,709.00
2023-12-23T12:26:07.661Z,707.00
2023-12-23T12:27:07.656Z,707.00
2023-12-23T12:28:07.641Z,709.00
2023-12-23T12:29:07.696Z,708.00